Time;durP1;ratioP1;P1;durP2;ratioP2;P2;SDS_P1;SDS_P2;PMS_P1;PMS_P2;Temp;Humidity;BMP_temperature;BMP_pressure;BME280_temperature;BME280_humidity;BME280_pressure;Samples;Min_cycle;Max_cycle;Signal;HPM_P1;HPM_P2
2021/12/12 00:01:20;;;;;;;1999.90;999.90;;;;;;;-5.06;62.51;101816.78;4940553;28;98606;-72
2021/12/12 00:03:52;;;;;;;1999.90;999.90;;;;;;;-5.06;63.01;101814.19;4947622;28;98217;-73
2021/12/12 00:06:23;;;;;;;1999.90;999.90;;;;;;;-5.05;62.87;101816.03;4936813;28;99443;-71
2021/12/12 00:08:56;;;;;;;1999.90;999.90;;;;;;;-5.07;62.48;101813.28;4935498;28;100162;-72
2021/12/12 00:11:27;;;;;;;1999.90;999.90;;;;;;;-5.07;62.59;101812.34;4937479;28;98437;-72
2021/12/12 00:13:58;;;;;;;1999.90;999.90;;;;;;;-5.08;62.76;101814.03;4941985;28;98028;-70
2021/12/12 00:16:26;;;;;;;1999.90;999.90;;;;;;;-5.08;62.81;101816.63;4938904;28;97895;-75
2021/12/12 00:18:55;;;;;;;1999.90;999.90;;;;;;;-5.07;62.77;101821.06;4918784;28;99734;-72
2021/12/12 00:21:24;;;;;;;1999.90;999.90;;;;;;;-5.08;62.45;101823.47;4932680;28;99210;-73
2021/12/12 00:23:53;;;;;;;1999.90;999.90;;;;;;;-5.09;62.74;101822.59;4937949;28;98006;-72
2021/12/12 00:26:21;;;;;;;1999.90;999.90;;;;;;;-5.10;62.46;101820.75;4936095;28;98981;-73
2021/12/12 00:28:50;;;;;;;1999.90;999.90;;;;;;;-5.12;62.65;101823.97;4919989;28;100067;-72
2021/12/12 00:31:20;;;;;;;1999.90;999.90;;;;;;;-5.13;62.59;101838.59;4937744;28;96887;-72
2021/12/12 00:33:50;;;;;;;1999.90;999.90;;;;;;;-5.12;62.66;101842.13;4939783;28;99483;-73
2021/12/12 00:36:20;;;;;;;1999.90;999.90;;;;;;;-5.14;62.53;101838.47;4933455;28;99721;-72
2021/12/12 00:38:50;;;;;;;1999.90;999.90;;;;;;;-5.15;62.60;101842.72;4937231;28;99150;-73
2021/12/12 00:41:26;;;;;;;1999.90;999.90;;;;;;;-5.16;62.71;101837.41;4941153;28;97688;-72
2021/12/12 00:43:55;;;;;;;1999.90;999.90;;;;;;;-5.13;62.70;101824.72;4941582;28;97937;-74
2021/12/12 00:46:24;;;;;;;1999.90;999.90;;;;;;;-5.09;62.73;101832.03;4934436;28;98358;-73
2021/12/12 00:48:53;;;;;;;1999.90;999.90;;;;;;;-5.06;62.53;101834.94;4931274;28;98679;-73
2021/12/12 00:51:25;;;;;;;1999.90;999.90;;;;;;;-5.02;62.39;101829.28;4937663;28;97218;-73
2021/12/12 00:53:54;;;;;;;1999.90;999.90;;;;;;;-4.98;62.88;101823.66;4935305;28;98561;-73
2021/12/12 00:56:24;;;;;;;1999.90;999.90;;;;;;;-4.97;62.76;101823.78;4934801;28;97638;-73
2021/12/12 00:58:52;;;;;;;1999.90;999.90;;;;;;;-4.97;62.51;101834.19;4934857;28;99408;-73
2021/12/12 01:01:23;;;;;;;1999.90;999.90;;;;;;;-4.96;62.59;101840.28;4938059;28;98646;-73
2021/12/12 01:03:55;;;;;;;1999.90;999.90;;;;;;;-4.96;62.56;101840.28;4937864;28;97071;-73
2021/12/12 01:06:24;;;;;;;1999.90;999.90;;;;;;;-4.95;62.40;101836.91;4940108;28;97747;-73
2021/12/12 01:08:55;;;;;;;1999.90;999.90;;;;;;;-4.96;62.47;101840.28;4943410;28;98915;-73
2021/12/12 01:11:29;;;;;;;1999.90;999.90;;;;;;;-4.97;62.40;101843.63;4944284;28;96769;-73
2021/12/12 01:13:58;;;;;;;1999.90;999.90;;;;;;;-4.99;62.71;101834.81;4944727;28;97254;-72
2021/12/12 01:16:28;;;;;;;1999.90;999.90;;;;;;;-5.02;62.18;101834.47;4944481;28;97743;-73
2021/12/12 01:19:00;;;;;;;1999.90;999.90;;;;;;;-5.05;62.17;101836.78;4945696;28;97628;-74
2021/12/12 01:21:31;;;;;;;1999.90;999.90;;;;;;;-5.04;62.21;101838.59;4944260;28;97143;-73
2021/12/12 01:24:03;;;;;;;1999.90;999.90;;;;;;;-5.07;62.29;101838.31;4942962;28;97714;-73
2021/12/12 01:26:32;;;;;;;1999.90;999.90;;;;;;;-5.08;62.31;101850.34;4941082;28;98982;-71
2021/12/12 01:29:01;;;;;;;1999.90;999.90;;;;;;;-5.10;62.09;101853.59;4941302;28;99995;-72
2021/12/12 01:31:35;;;;;;;1999.90;999.90;;;;;;;-5.12;62.32;101852.50;4942709;28;97963;-72
2021/12/12 01:34:11;;;;;;;1999.90;999.90;;;;;;;-5.14;62.52;101857.56;4932803;28;97475;-73
2021/12/12 01:36:48;;;;;;;1999.90;999.90;;;;;;;-5.16;62.33;101850.38;4939214;28;97742;-73
2021/12/12 01:39:18;;;;;;;1999.90;999.90;;;;;;;-5.17;62.15;101848.50;4941074;28;97736;-72
2021/12/12 01:41:55;;;;;;;1999.90;999.90;;;;;;;-5.20;62.09;101854.34;4943410;28;96885;-73
2021/12/12 01:44:26;;;;;;;1999.90;999.90;;;;;;;-5.21;62.55;101852.47;4926234;28;97756;-72
2021/12/12 01:47:02;;;;;;;1999.90;999.90;;;;;;;-5.21;62.33;101847.28;4941239;28;97589;-72
2021/12/12 01:49:32;;;;;;;1999.90;999.90;;;;;;;-5.19;62.49;101837.09;4944834;28;99307;-71
2021/12/12 01:52:00;;;;;;;1999.90;999.90;;;;;;;-5.20;62.05;101843.97;4944607;28;97381;-73
2021/12/12 01:54:31;;;;;;;1999.90;999.90;;;;;;;-5.20;62.39;101835.25;4943290;28;97668;-74
2021/12/12 01:57:01;;;;;;;1999.90;999.90;;;;;;;-5.22;62.21;101829.91;4925755;28;99852;-73
2021/12/12 01:59:31;;;;;;;1999.90;999.90;;;;;;;-5.21;62.17;101834.31;4944035;28;101753;-73
2021/12/12 02:02:02;;;;;;;1999.90;999.90;;;;;;;-5.21;62.19;101836.91;4942185;28;96867;-72
2021/12/12 02:04:34;;;;;;;1999.90;999.90;;;;;;;-5.22;62.62;101835.09;4943877;28;96843;-73
2021/12/12 02:07:03;;;;;;;1999.90;999.90;;;;;;;-5.21;62.23;101843.81;4945698;28;97692;-73
2021/12/12 02:09:31;;;;;;;1999.90;999.90;;;;;;;-5.20;62.27;101845.63;4941816;28;99044;-72
2021/12/12 02:12:03;;;;;;;1999.90;999.90;;;;;;;-5.20;62.46;101853.41;4942673;28;97349;-73
2021/12/12 02:14:32;;;;;;;1999.90;999.90;;;;;;;-5.19;62.24;101856.16;4940899;28;97026;-72
2021/12/12 02:17:04;;;;;;;1999.90;999.90;;;;;;;-5.18;62.49;101854.47;4941281;28;99013;-73
2021/12/12 02:19:40;;;;;;;1999.90;999.90;;;;;;;-5.16;62.36;101850.38;4941866;28;99719;-73
2021/12/12 02:22:32;;;;;;;1999.90;999.90;;;;;;;-5.17;62.39;101854.63;4941559;28;97013;-73
2021/12/12 02:36:11;;;;;;;1999.90;999.90;;;;;;;-5.15;62.23;101876.47;4899724;28;97848;-73
2021/12/12 02:38:41;;;;;;;1999.90;999.90;;;;;;;-5.13;62.28;101868.81;4896576;28;97543;-73
2021/12/12 02:41:12;;;;;;;1999.90;999.90;;;;;;;-5.13;62.41;101867.16;4918270;28;97795;-73
2021/12/12 02:43:43;;;;;;;1999.90;999.90;;;;;;;-5.14;62.26;101869.59;4941237;28;97568;-72
2021/12/12 02:46:17;;;;;;;1999.90;999.90;;;;;;;-5.15;62.40;101865.16;4940815;28;98337;-73
2021/12/12 02:48:46;;;;;;;1999.90;999.90;;;;;;;-5.14;62.65;101873.13;4925829;28;97995;-72
2021/12/12 02:51:18;;;;;;;1999.90;999.90;;;;;;;-5.14;61.95;101879.97;4940120;28;99279;-73
2021/12/12 02:53:52;;;;;;;1999.90;999.90;;;;;;;-5.14;62.42;101879.97;4940089;28;97076;-72
2021/12/12 02:56:23;;;;;;;1999.90;999.90;;;;;;;-5.13;62.49;101874.00;4936348;28;97706;-73
2021/12/12 02:58:52;;;;;;;1999.90;999.90;;;;;;;-5.12;62.30;101878.47;4939455;28;99405;-72
2021/12/12 03:01:25;;;;;;;1999.90;999.90;;;;;;;-5.14;62.35;101880.91;4939585;28;98677;-73
2021/12/12 03:03:56;;;;;;;1999.90;999.90;;;;;;;-5.11;62.32;101883.78;4941899;28;99619;-71
2021/12/12 03:06:26;;;;;;;1999.90;999.90;;;;;;;-5.10;62.22;101885.59;4942011;28;97321;-73
2021/12/12 03:09:04;;;;;;;1999.90;999.90;;;;;;;-5.10;62.15;101876.94;4941304;28;97616;-70
2021/12/12 03:11:32;;;;;;;1999.90;999.90;;;;;;;-5.08;62.27;101886.69;4916267;28;98806;-73
2021/12/12 03:14:00;;;;;;;1999.90;999.90;;;;;;;-5.08;62.17;101889.28;4942270;28;97674;-73
2021/12/12 03:16:28;;;;;;;1999.90;999.90;;;;;;;-5.07;62.31;101893.72;4943030;28;97018;-73
2021/12/12 03:18:56;;;;;;;1999.90;999.90;;;;;;;-5.08;62.38;101891.88;4944237;28;96904;-72
2021/12/12 03:21:30;;;;;;;1999.90;999.90;;;;;;;-5.07;62.39;101896.31;4944977;28;96876;-72
2021/12/12 03:24:01;;;;;;;1999.90;999.90;;;;;;;-5.05;62.26;101891.28;4943879;28;96884;-72
2021/12/12 03:26:30;;;;;;;1999.90;999.90;;;;;;;-5.06;62.19;101890.34;4946170;28;97203;-72
2021/12/12 03:28:58;;;;;;;1999.90;999.90;;;;;;;-5.05;62.26;101899.06;4944609;28;97766;-70
2021/12/12 03:31:29;;;;;;;1999.90;999.90;;;;;;;-5.07;62.30;101904.09;4943094;28;98743;-70
2021/12/12 03:33:56;;;;;;;1999.90;999.90;;;;;;;-5.06;62.41;101894.63;4945033;28;97267;-72
2021/12/12 03:36:25;;;;;;;1999.90;999.90;;;;;;;-5.04;62.23;101903.47;4944819;28;97276;-72
2021/12/12 03:38:55;;;;;;;1999.90;999.90;;;;;;;-5.03;62.18;101902.72;4944941;28;98301;-72
2021/12/12 03:41:27;;;;;;;1999.90;999.90;;;;;;;-5.04;62.39;101903.47;4945581;28;97854;-72
2021/12/12 03:43:57;;;;;;;1999.90;999.90;;;;;;;-5.04;62.42;101898.28;4944889;28;97077;-72
2021/12/12 03:46:25;;;;;;;1999.90;999.90;;;;;;;-5.05;62.18;101894.78;4944645;28;96869;-72
2021/12/12 03:48:54;;;;;;;1999.90;999.90;;;;;;;-5.06;62.08;101898.13;4941019;28;98944;-72
2021/12/12 03:51:24;;;;;;;1999.90;999.90;;;;;;;-5.07;62.38;101903.19;4942754;28;98709;-73
2021/12/12 03:53:52;;;;;;;1999.90;999.90;;;;;;;-5.08;62.39;101915.22;4944742;28;97748;-72
2021/12/12 03:56:20;;;;;;;1999.90;999.90;;;;;;;-5.08;62.05;101911.69;4940508;28;99129;-72
2021/12/12 03:58:49;;;;;;;1999.90;999.90;;;;;;;-5.11;62.17;101917.53;4943820;28;98912;-72
2021/12/12 04:01:20;;;;;;;1999.90;999.90;;;;;;;-5.15;62.13;101914.44;4942912;28;100199;-72
2021/12/12 04:03:50;;;;;;;1999.90;999.90;;;;;;;-5.17;62.18;101922.09;4958716;28;97336;-72
2021/12/12 04:06:20;;;;;;;1999.90;999.90;;;;;;;-5.16;62.40;101917.81;4944304;28;96775;-72
2021/12/12 04:08:50;;;;;;;1999.90;999.90;;;;;;;-5.17;62.21;101911.69;4942495;28;100598;-72
2021/12/12 04:11:20;;;;;;;1999.90;999.90;;;;;;;-5.20;62.51;101905.28;4942932;28;98950;-72
2021/12/12 04:13:52;;;;;;;1999.90;999.90;;;;;;;-5.25;62.45;101911.69;4940647;28;97216;-72
2021/12/12 04:16:21;;;;;;;1999.90;999.90;;;;;;;-5.27;62.87;101902.84;4943438;28;97634;-73
2021/12/12 04:18:49;;;;;;;1999.90;999.90;;;;;;;-5.29;62.57;101902.69;4942996;28;98838;-73
2021/12/12 04:21:21;;;;;;;1999.90;999.90;;;;;;;-5.27;62.71;101897.66;4942711;28;100373;-73
2021/12/12 04:23:49;;;;;;;1999.90;999.90;;;;;;;-5.26;62.51;101899.47;4946886;28;97800;-73
2021/12/12 04:26:20;;;;;;;1999.90;999.90;;;;;;;-5.26;62.44;101889.09;4947570;28;96896;-72
2021/12/12 04:28:59;;;;;;;1999.90;999.90;;;;;;;-5.24;62.33;101910.91;4945894;28;100943;-72
2021/12/12 04:31:27;;;;;;;1999.90;999.90;;;;;;;-5.22;62.58;101904.22;4945393;28;98714;-73
2021/12/12 04:33:55;;;;;;;1999.90;999.90;;;;;;;-5.21;62.31;101912.16;4944356;28;97596;-72
2021/12/12 04:36:29;;;;;;;1999.90;999.90;;;;;;;-5.22;62.33;101912.00;4946234;28;97182;-73
2021/12/12 04:39:02;;;;;;;1999.90;999.90;;;;;;;-5.22;62.50;101907.75;4943182;28;99131;-72
2021/12/12 04:41:30;;;;;;;1999.90;999.90;;;;;;;-5.24;62.32;101914.44;4944607;28;99114;-70
2021/12/12 04:43:59;;;;;;;1999.90;999.90;;;;;;;-5.24;62.35;101911.84;4944191;28;97202;-72
2021/12/12 04:46:37;;;;;;;1999.90;999.90;;;;;;;-5.22;62.29;101914.59;4945031;28;96868;-71
2021/12/12 04:51:58;;;;;;;1999.90;999.90;;;;;;;-5.19;62.42;101907.16;4943864;28;98769;-72
2021/12/12 04:54:32;;;;;;;1999.90;999.90;;;;;;;-5.16;62.28;101905.78;4936570;28;97642;-72
2021/12/12 04:57:01;;;;;;;1999.90;999.90;;;;;;;-5.13;62.33;101905.16;4954791;28;96979;-71
2021/12/12 04:59:34;;;;;;;1999.90;999.90;;;;;;;-5.12;62.45;101904.41;4960162;28;98908;-72
2021/12/12 05:02:07;;;;;;;1999.90;999.90;;;;;;;-5.11;62.28;101901.97;4959128;28;97764;-71
2021/12/12 05:04:44;;;;;;;1999.90;999.90;;;;;;;-5.11;62.27;101901.03;4959092;28;97753;-74
2021/12/12 05:07:14;;;;;;;1999.90;999.90;;;;;;;-5.08;62.29;101914.31;4957464;28;96824;-72
2021/12/12 05:09:49;;;;;;;1999.90;999.90;;;;;;;-5.08;62.15;101906.50;4956590;28;99363;-72
2021/12/12 05:12:20;;;;;;;1999.90;999.90;;;;;;;-5.08;62.16;101897.06;4956480;28;97664;-73
2021/12/12 05:14:54;;;;;;;1999.90;999.90;;;;;;;-5.08;62.34;101901.31;4948868;28;97205;-71
2021/12/12 05:17:26;;;;;;;1999.90;999.90;;;;;;;-5.06;62.02;101899.81;4943280;28;97505;-72
2021/12/12 05:19:57;;;;;;;1999.90;999.90;;;;;;;-5.06;62.44;101898.13;4944166;28;98808;-73
2021/12/12 05:22:32;;;;;;;1999.90;999.90;;;;;;;-5.07;61.95;101903.19;4941260;28;99141;-72
2021/12/12 05:25:02;;;;;;;1999.90;999.90;;;;;;;-5.04;62.14;101908.66;4942046;28;97335;-72
2021/12/12 05:27:32;;;;;;;1999.90;999.90;;;;;;;-5.04;62.35;101908.66;4941933;28;97469;-71
2021/12/12 05:30:05;;;;;;;1999.90;999.90;;;;;;;-5.04;62.23;101904.41;4940565;28;99592;-72
2021/12/12 05:32:35;;;;;;;1999.90;999.90;;;;;;;-5.04;62.33;101901.81;4943012;28;98797;-73
2021/12/12 05:35:06;;;;;;;1999.90;999.90;;;;;;;-5.03;62.24;101900.13;4941661;28;98106;-72
2021/12/12 05:37:34;;;;;;;1999.90;999.90;;;;;;;-5.02;61.96;101897.69;4941268;28;98076;-72
2021/12/12 05:40:06;;;;;;;1999.90;999.90;;;;;;;-5.01;62.11;101901.22;4940204;28;98803;-72
2021/12/12 05:42:34;;;;;;;1999.90;999.90;;;;;;;-5.00;62.39;101896.16;4940713;28;99288;-72
2021/12/12 05:45:06;;;;;;;1999.90;999.90;;;;;;;-4.98;61.86;101896.31;4940553;28;97932;-72
2021/12/12 05:47:35;;;;;;;1999.90;999.90;;;;;;;-4.96;62.14;101897.38;4943418;28;96901;-73
2021/12/12 05:50:04;;;;;;;1999.90;999.90;;;;;;;-4.97;61.98;101891.28;4940200;28;98421;-72
2021/12/12 05:52:32;;;;;;;1999.90;999.90;;;;;;;-4.95;62.05;101896.59;4941387;28;99504;-73
2021/12/12 05:55:00;;;;;;;1999.90;999.90;;;;;;;-4.96;62.00;101902.56;4941358;28;96978;-73
2021/12/12 05:57:30;;;;;;;1999.90;999.90;;;;;;;-4.96;62.36;101908.69;4940643;28;96867;-72
2021/12/12 05:59:58;;;;;;;1999.90;999.90;;;;;;;-4.95;62.23;101910.50;4954529;28;97517;-71
2021/12/12 06:02:28;;;;;;;1999.90;999.90;;;;;;;-4.93;62.19;101906.41;4941146;28;99933;-73
2021/12/12 06:04:57;;;;;;;1999.90;999.90;;;;;;;-4.92;62.28;101900.41;4939921;28;98584;-72
2021/12/12 06:07:26;;;;;;;1999.90;999.90;;;;;;;-4.90;62.18;101892.81;4942410;28;97289;-73
2021/12/12 06:09:54;;;;;;;1999.90;999.90;;;;;;;-4.88;61.95;101895.56;4940419;28;99549;-73
2021/12/12 06:12:22;;;;;;;1999.90;999.90;;;;;;;-4.88;62.10;101891.25;4942094;28;98184;-72
2021/12/12 06:14:51;;;;;;;1999.90;999.90;;;;;;;-4.86;62.36;101889.75;4940537;28;97197;-75
2021/12/12 06:17:20;;;;;;;1999.90;999.90;;;;;;;-4.85;61.97;101885.47;4940859;28;98165;-73
2021/12/12 06:19:50;;;;;;;1999.90;999.90;;;;;;;-4.84;62.01;101887.31;4941532;28;99325;-73
2021/12/12 06:22:18;;;;;;;1999.90;999.90;;;;;;;-4.85;62.24;101901.97;4941423;28;99597;-73
2021/12/12 06:24:46;;;;;;;1999.90;999.90;;;;;;;-4.85;62.34;101891.59;4940341;28;97315;-73
2021/12/12 06:27:17;;;;;;;1999.90;999.90;;;;;;;-4.83;62.21;101890.06;4939866;28;97174;-73
2021/12/12 06:29:47;;;;;;;1999.90;999.90;;;;;;;-4.81;62.51;101888.53;4941343;28;101136;-73
2021/12/12 06:32:15;;;;;;;1999.90;999.90;;;;;;;-4.78;62.28;101880.13;4941863;28;99422;-73
2021/12/12 06:34:44;;;;;;;1999.90;999.90;;;;;;;-4.77;62.14;101897.56;4939673;28;96933;-73
2021/12/12 06:37:13;;;;;;;1999.90;999.90;;;;;;;-4.75;62.10;101883.03;4942180;28;97902;-73
2021/12/12 06:39:42;;;;;;;1999.90;999.90;;;;;;;-4.72;62.03;101891.13;4941147;28;98014;-72
2021/12/12 06:42:11;;;;;;;1999.90;999.90;;;;;;;-4.71;62.21;101895.53;4940500;28;98769;-73
2021/12/12 06:44:41;;;;;;;1999.90;999.90;;;;;;;-4.70;62.33;101887.94;4938168;28;97234;-73
2021/12/12 06:47:09;;;;;;;1999.90;999.90;;;;;;;-4.67;62.25;101882.09;4941955;28;97148;-73
2021/12/12 06:49:38;;;;;;;1999.90;999.90;;;;;;;-4.65;62.16;101876.31;4942418;28;99027;-73
2021/12/12 06:52:09;;;;;;;1999.90;999.90;;;;;;;-4.65;62.46;101878.91;4940734;28;98698;-74
2021/12/12 06:54:39;;;;;;;1999.90;999.90;;;;;;;-4.63;61.80;101881.66;4941024;28;97242;-73
2021/12/12 06:57:09;;;;;;;1999.90;999.90;;;;;;;-4.62;62.36;101879.19;4940749;28;97369;-73
2021/12/12 06:59:39;;;;;;;1999.90;999.90;;;;;;;-4.59;62.01;101887.31;4940724;28;97453;-73
2021/12/12 07:02:08;;;;;;;1999.90;999.90;;;;;;;-4.58;62.19;101889.13;4939419;28;97685;-73
2021/12/12 07:04:38;;;;;;;1999.90;999.90;;;;;;;-4.56;62.35;101887.59;4923246;28;97774;-73
2021/12/12 07:07:11;;;;;;;1999.90;999.90;;;;;;;-4.53;62.32;101882.69;4938794;28;98246;-73
2021/12/12 07:09:42;;;;;;;1999.90;999.90;;;;;;;-4.52;62.44;101884.53;4936544;28;100424;-72
2021/12/12 07:12:12;;;;;;;1999.90;999.90;;;;;;;-4.50;62.60;101883.00;4940788;28;97557;-73
2021/12/12 07:14:41;;;;;;;1999.90;999.90;;;;;;;-4.48;62.13;101878.84;4939311;28;97477;-73
2021/12/12 07:17:14;;;;;;;1999.90;999.90;;;;;;;-4.44;62.42;101885.31;4940578;28;97616;-73
2021/12/12 07:19:43;;;;;;;1999.90;999.90;;;;;;;-4.44;62.23;101886.19;4940740;28;98548;-72
2021/12/12 07:22:11;;;;;;;1999.90;999.90;;;;;;;-4.42;62.18;101881.13;4940668;28;99588;-73
2021/12/12 07:24:41;;;;;;;1999.90;999.90;;;;;;;-4.39;62.10;101887.53;4939250;28;97692;-73
2021/12/12 07:27:10;;;;;;;1999.90;999.90;;;;;;;-4.36;61.88;101882.66;4941837;28;96823;-73
2021/12/12 07:29:38;;;;;;;1999.90;999.90;;;;;;;-4.35;62.06;101883.59;4941654;28;98809;-73
2021/12/12 07:32:07;;;;;;;1999.90;999.90;;;;;;;-4.31;62.00;101890.91;4940109;28;98247;-73
2021/12/12 07:34:38;;;;;;;1999.90;999.90;;;;;;;-4.31;62.00;101889.22;4941191;28;97149;-72
2021/12/12 07:37:10;;;;;;;1999.90;999.90;;;;;;;-4.28;61.86;101886.03;4940137;28;96855;-73
2021/12/12 07:39:43;;;;;;;1999.90;999.90;;;;;;;-4.27;62.05;101880.03;4939076;28;98649;-72
2021/12/12 07:42:13;;;;;;;1999.90;999.90;;;;;;;-4.24;62.02;101878.66;4938603;28;99495;-73
2021/12/12 07:44:44;;;;;;;1999.90;999.90;;;;;;;-4.23;62.00;101871.78;4943231;28;96783;-72
2021/12/12 07:47:17;;;;;;;1999.90;999.90;;;;;;;-4.20;61.91;101870.41;4942969;28;97131;-72
2021/12/12 07:49:49;;;;;;;1999.90;999.90;;;;;;;-4.17;61.96;101864.59;4943501;28;98560;-72
2021/12/12 07:52:19;;;;;;;1999.90;999.90;;;;;;;-4.16;61.91;101854.34;4942908;28;98347;-74
2021/12/12 07:54:50;;;;;;;1999.90;999.90;;;;;;;-4.14;62.14;101855.41;4942024;28;97795;-73
2021/12/12 07:57:19;;;;;;;1999.90;999.90;;;;;;;-4.10;62.08;101865.34;4943205;28;97881;-74
2021/12/12 07:59:49;;;;;;;1999.90;999.90;;;;;;;-4.08;62.11;101855.97;4943395;28;100459;-73
2021/12/12 08:02:17;;;;;;;1999.90;999.90;;;;;;;-4.06;61.85;101851.84;4926051;28;99405;-72
2021/12/12 08:04:48;;;;;;;1999.90;999.90;;;;;;;-4.01;62.20;101854.91;4926142;28;97251;-72
2021/12/12 08:07:23;;;;;;;1999.90;999.90;;;;;;;-3.99;62.06;101856.84;4944562;28;97267;-73
2021/12/12 08:09:53;;;;;;;1999.90;999.90;;;;;;;-3.96;61.95;101862.38;4943361;28;98796;-73
2021/12/12 08:12:24;;;;;;;1999.90;999.90;;;;;;;-3.94;61.81;101857.31;4944789;28;97536;-73
2021/12/12 08:14:52;;;;;;;1999.90;999.90;;;;;;;-3.92;62.09;101864.50;4942921;28;97010;-74
2021/12/12 08:17:21;;;;;;;1999.90;999.90;;;;;;;-3.88;62.04;101864.00;4943048;28;97418;-74
2021/12/12 08:19:49;;;;;;;1999.90;999.90;;;;;;;-3.84;61.87;101866.91;4943481;28;97972;-73
2021/12/12 08:22:17;;;;;;;1999.90;999.90;;;;;;;-3.81;61.94;101872.41;4944569;28;100557;-73
2021/12/12 08:24:45;;;;;;;1999.90;999.90;;;;;;;-3.78;61.89;101872.66;4942622;28;97785;-73
2021/12/12 08:27:14;;;;;;;1999.90;999.90;;;;;;;-3.76;62.28;101874.66;4943149;28;97198;-73
2021/12/12 08:29:42;;;;;;;1999.90;999.90;;;;;;;-3.72;61.95;101873.25;4944776;28;97502;-73
2021/12/12 08:32:12;;;;;;;1999.90;999.90;;;;;;;-3.71;62.32;101873.41;4938242;28;99246;-73
2021/12/12 08:35:00;;;;;;;1999.90;999.90;;;;;;;-3.67;61.77;101878.13;4956734;28;96860;-71
2021/12/12 08:37:29;;;;;;;1999.90;999.90;;;;;;;-3.63;62.20;101880.25;4956526;28;97245;-69
2021/12/12 08:39:59;;;;;;;1999.90;999.90;;;;;;;-3.61;61.65;101880.41;4956837;28;100009;-71
2021/12/12 08:42:29;;;;;;;1999.90;999.90;;;;;;;-3.57;62.28;101879.94;4954938;28;99206;-72
2021/12/12 08:45:03;;;;;;;1999.90;999.90;;;;;;;-3.55;61.80;101887.13;4930587;28;97934;-72
2021/12/12 08:47:35;;;;;;;1999.90;999.90;;;;;;;-3.49;61.70;101878.94;4951693;28;97120;-72
2021/12/12 08:50:05;;;;;;;1999.90;999.90;;;;;;;-3.46;61.89;101877.56;4945134;28;97678;-69
2021/12/12 08:52:38;;;;;;;1999.90;999.90;;;;;;;-3.44;61.95;101878.59;4943073;28;98667;-69
2021/12/12 08:55:14;;;;;;;1999.90;999.90;;;;;;;-3.40;61.64;101877.25;4939319;28;98234;-73
2021/12/12 08:57:51;;;;;;;1999.90;999.90;;;;;;;-3.37;61.49;101869.72;4954435;28;97646;-73
2021/12/12 09:00:32;;;;;;;1999.90;999.90;;;;;;;-3.33;62.03;101861.44;4938624;28;99572;-72
2021/12/12 09:03:01;;;;;;;1999.90;999.90;;;;;;;-3.30;61.88;101856.50;4923932;28;99490;-75
2021/12/12 09:05:33;;;;;;;1999.90;999.90;;;;;;;-3.26;62.04;101858.63;4943087;28;97558;-74
2021/12/12 09:08:17;;;;;;;1999.90;999.90;;;;;;;-3.23;61.30;101856.28;4934238;28;97867;-70
2021/12/12 09:10:49;;;;;;;1999.90;999.90;;;;;;;-3.19;61.37;101854.13;4933221;28;98091;-74
2021/12/12 09:13:21;;;;;;;1999.90;999.90;;;;;;;-3.16;61.08;101857.00;4941468;28;98072;-74
2021/12/12 09:15:53;;;;;;;1999.90;999.90;;;;;;;-3.13;62.04;101861.59;4939220;28;96958;-73
2021/12/12 09:18:26;;;;;;;1999.90;999.90;;;;;;;-3.10;61.58;101854.03;4942604;28;96835;-74
2021/12/12 09:21:00;;;;;;;1999.90;999.90;;;;;;;-3.07;61.88;101856.91;4939851;28;98848;-72
2021/12/12 09:23:32;;;;;;;1999.90;999.90;;;;;;;-3.04;61.80;101867.63;4941348;28;97872;-75
2021/12/12 09:26:03;;;;;;;1999.90;999.90;;;;;;;-3.03;61.24;101854.75;4939466;28;97363;-74
2021/12/12 09:28:37;;;;;;;1999.90;999.90;;;;;;;-3.01;61.49;101842.81;4940293;28;97665;-74
2021/12/12 09:31:07;;;;;;;1999.90;999.90;;;;;;;-2.97;61.16;101844.91;4941545;28;97695;-73
2021/12/12 09:33:47;;;;;;;1999.90;999.90;;;;;;;-2.96;61.26;101849.34;4941986;28;98249;-74
2021/12/12 09:36:18;;;;;;;1999.90;999.90;;;;;;;-2.94;61.70;101855.59;4958197;28;97594;-74
2021/12/12 09:38:48;;;;;;;1999.90;999.90;;;;;;;-2.91;61.65;101854.97;4944458;28;97630;-74
2021/12/12 09:41:24;;;;;;;1999.90;999.90;;;;;;;-2.90;61.56;101859.41;4940947;28;97645;-75
2021/12/12 09:44:04;;;;;;;1999.90;999.90;;;;;;;-2.87;61.53;101863.19;4940833;28;98880;-75
2021/12/12 09:46:58;;;;;;;1999.90;999.90;;;;;;;-2.85;61.84;101858.13;4925357;28;97929;-74
2021/12/12 09:52:38;;;;;;;1999.90;999.90;;;;;;;-2.80;61.92;101854.22;4941359;28;97965;-74
2021/12/12 09:55:09;;;;;;;1999.90;999.90;;;;;;;-2.77;61.54;101871.84;4934551;28;98853;-73
2021/12/12 09:57:45;;;;;;;1999.90;999.90;;;;;;;-2.76;61.11;101866.78;4940337;28;98825;-74
2021/12/12 10:00:18;;;;;;;1999.90;999.90;;;;;;;-2.73;61.53;101867.06;4936197;28;97865;-74
2021/12/12 10:02:56;;;;;;;1999.90;999.90;;;;;;;-2.72;61.72;101855.88;4940211;28;97707;-74
2021/12/12 10:05:34;;;;;;;1999.90;999.90;;;;;;;-2.70;61.55;101853.38;4941435;28;97767;-73
2021/12/12 10:08:11;;;;;;;1999.90;999.90;;;;;;;-2.66;61.08;101853.81;4942894;28;97557;-75
2021/12/12 10:10:48;;;;;;;1999.90;999.90;;;;;;;-2.64;61.89;101847.06;4942628;28;96910;-74
2021/12/12 10:13:21;;;;;;;1999.90;999.90;;;;;;;-2.61;60.86;101841.19;4937626;28;98587;-74
2021/12/12 10:15:53;;;;;;;1999.90;999.90;;;;;;;-2.60;61.69;101843.03;4925227;28;98932;-74
2021/12/12 10:18:24;;;;;;;1999.90;999.90;;;;;;;-2.56;61.00;101846.03;4944000;28;96807;-76
2021/12/12 10:20:57;;;;;;;1999.90;999.90;;;;;;;-2.54;61.54;101843.56;4926131;28;97244;-73
2021/12/12 10:23:36;;;;;;;1999.90;999.90;;;;;;;-2.52;61.30;101834.19;4943643;28;97771;-73
2021/12/12 10:26:06;;;;;;;1999.90;999.90;;;;;;;-2.50;61.28;101835.25;4943423;28;97585;-74
2021/12/12 10:28:36;;;;;;;1999.90;999.90;;;;;;;-2.49;61.52;101832.78;4938020;28;96895;-74
2021/12/12 10:31:16;;;;;;;1999.90;999.90;;;;;;;-2.47;61.45;101831.22;4939423;28;97267;-73
2021/12/12 10:33:47;;;;;;;1999.90;999.90;;;;;;;-2.45;61.15;101834.91;4914887;28;100557;-74
2021/12/12 10:36:17;;;;;;;1999.90;999.90;;;;;;;-2.43;61.43;101830.75;4943141;28;97642;-74
2021/12/12 10:38:53;;;;;;;1999.90;999.90;;;;;;;-2.40;61.89;101831.00;4937808;28;97228;-74
2021/12/12 10:41:25;;;;;;;1999.90;999.90;;;;;;;-2.36;61.52;101821.78;4938659;28;97302;-74
2021/12/12 10:43:56;;;;;;;1999.90;999.90;;;;;;;-2.34;60.92;101822.81;4940714;28;97665;-73
2021/12/12 10:46:31;;;;;;;1999.90;999.90;;;;;;;-2.32;61.52;101821.25;4940224;28;100777;-72
2021/12/12 10:49:04;;;;;;;1999.90;999.90;;;;;;;-2.29;61.00;101806.81;4936735;28;98004;-72
2021/12/12 10:51:39;;;;;;;1999.90;999.90;;;;;;;-2.26;61.46;101807.09;4938246;28;97223;-72
2021/12/12 10:54:13;;;;;;;1999.90;999.90;;;;;;;-2.23;61.76;101801.22;4937625;28;98822;-73
2021/12/12 10:56:42;;;;;;;1999.90;999.90;;;;;;;-2.20;61.45;101805.00;4936988;28;98100;-73
2021/12/12 10:59:24;;;;;;;1999.90;999.90;;;;;;;-2.18;61.25;101803.44;4940454;28;98110;-74
2021/12/12 11:02:00;;;;;;;1999.90;999.90;;;;;;;-2.15;60.90;101797.63;4943263;28;96841;-74
2021/12/12 11:04:38;;;;;;;1999.90;999.90;;;;;;;-2.12;61.74;101791.00;4943132;28;99677;-73
2021/12/12 11:07:10;;;;;;;1999.90;999.90;;;;;;;-2.07;61.41;101778.38;4944116;28;99033;-74
2021/12/12 11:09:42;;;;;;;1999.90;999.90;;;;;;;-2.03;60.97;101773.53;4940021;28;98157;-74
2021/12/12 11:12:17;;;;;;;1999.90;999.90;;;;;;;-2.02;60.81;101775.38;4939156;28;97130;-74
2021/12/12 11:14:58;;;;;;;1999.90;999.90;;;;;;;-1.99;61.75;101767.81;4936159;28;97788;-74
2021/12/12 11:17:31;;;;;;;1999.90;999.90;;;;;;;-1.95;61.38;101755.97;4938225;28;98179;-74
2021/12/12 11:20:01;;;;;;;1999.90;999.90;;;;;;;-1.93;61.14;101752.72;4937065;28;98134;-73
2021/12/12 11:22:32;;;;;;;1999.90;999.90;;;;;;;-1.94;61.82;101745.66;4937834;28;98991;-73